Strona główna
METAR-TAF:

METAR-TAF

Lotnisko :

Valley, Walia

Szerokość geograficzna: 53-15N, Długość geograficzna: 004-32W, wysokość: 1 m

Aktualna obserwacja pogody

Raport powstał 47 minut temu, godzina 00:50 UTC
Wiatr 6 kt od zachodnio-północny zachód
Temperatura 6°C
Wilgotność 81%
Ciśnienie 1044 hPa
Widzialność 10 km lub więcej

METAR: EGOV 210050Z AUTO 29006KT 9999 BKN025/// 06/03 Q1044

czas: 01:37 (01:37 UTC)

Prognoza

Raport powstał 8 godziny i 59 minut temu, godzina 16:38 UTC
Prognoza ważna od 20 godzina 18 UTC do 20 godzina 21 UTC
Wiatr 8 kt od południowy zachód
Widzialność 10 km lub więcej
Mało chmury na wysokości 1800 ft

TAF: EGOV 201638Z 2018/2021 23008KT 9999 FEW018

Obserwacja i prognoza pogody dla ponad 4000 lotnisk (raport METAR i TAF).

Dostępne stacje oznaczono żółtymi i czerwonymi punktami na mapie.

Najedź kursorem aby zobaczyć nazwę stacji.

Kliknij aby zobaczyć obserwacje i prognozy pogody.

Aby zmienić mapę: kliknij na zielony przycisk z czarnym krzyżykiem, aby powiększyć; na zielony przycisk z myślnikiem, aby pomniejszyć; na zielone strzałki, aby przejść do map sąsiednich.


METAR-TAF: